createdAt,value
2022-11-17T00:00:43.375Z,99814.63
2022-11-17T00:03:18.409Z,99808.58
2022-11-17T00:05:46.378Z,99809.42
2022-11-17T00:08:14.241Z,99808.36
2022-11-17T00:10:42.107Z,99805.16
2022-11-17T00:13:30.147Z,99810.88
2022-11-17T00:15:58.012Z,99811.82
2022-11-17T00:18:44.627Z,99807.29
2022-11-17T00:21:19.271Z,99805.62
2022-11-17T00:23:48.274Z,99806.77
2022-11-17T00:26:18.966Z,99809.46
2022-11-17T00:28:47.138Z,99813.51
2022-11-17T00:31:34.257Z,99815.20
2022-11-17T00:34:05.239Z,99817.54
2022-11-17T00:36:45.450Z,99818.05
2022-11-17T00:39:15.054Z,99821.92
2022-11-17T00:41:43.125Z,99824.59
2022-11-17T00:44:11.009Z,99825.77
2022-11-17T00:46:39.993Z,99826.60
2022-11-17T00:49:11.028Z,99824.70
2022-11-17T00:51:39.195Z,99826.00
2022-11-17T00:54:10.439Z,99827.44
2022-11-17T00:56:38.716Z,99826.19
2022-11-17T00:59:06.679Z,99825.25
2022-11-17T01:01:34.826Z,99823.52
2022-11-17T01:04:03.857Z,99823.33
2022-11-17T01:06:47.382Z,99818.11
2022-11-17T01:09:20.837Z,99821.12
2022-11-17T01:11:50.383Z,99813.02
2022-11-17T01:14:24.289Z,99813.95
2022-11-17T01:16:53.435Z,99816.09
2022-11-17T01:19:22.607Z,99815.86
2022-11-17T01:21:50.936Z,99820.46
2022-11-17T01:24:18.926Z,99821.90
2022-11-17T01:26:46.893Z,99819.81
2022-11-17T01:29:17.485Z,99821.64
2022-11-17T01:31:49.793Z,99812.29
2022-11-17T01:34:17.864Z,99815.66
2022-11-17T01:37:04.363Z,99812.28
2022-11-17T01:39:32.745Z,99811.88
2022-11-17T01:42:09.823Z,99809.48
2022-11-17T01:44:40.659Z,99808.11
2022-11-17T01:47:17.946Z,99809.35
2022-11-17T01:49:47.041Z,99812.97
2022-11-17T01:52:15.901Z,99814.43
2022-11-17T01:54:46.448Z,99814.35
2022-11-17T01:57:21.584Z,99814.92
2022-11-17T01:59:54.511Z,99816.18
2022-11-17T02:02:23.217Z,99820.84
2022-11-17T02:05:28.129Z,99815.59
2022-11-17T02:07:59.846Z,99812.01
2022-11-17T02:10:31.208Z,99811.11
2022-11-17T02:13:00.733Z,99808.74
2022-11-17T02:15:29.958Z,99814.59
2022-11-17T02:17:59.640Z,99813.74
2022-11-17T02:20:49.380Z,99814.88
2022-11-17T02:23:36.301Z,99811.60
2022-11-17T02:26:29.345Z,99816.91
2022-11-17T02:29:23.223Z,99813.50
2022-11-17T02:32:06.039Z,99813.34
2022-11-17T02:34:39.738Z,99812.33
2022-11-17T02:37:17.230Z,99811.98
2022-11-17T02:39:50.253Z,99815.34
2022-11-17T02:42:49.621Z,99816.84
2022-11-17T02:45:30.594Z,99812.42
2022-11-17T02:48:00.701Z,99811.70
2022-11-17T02:50:30.447Z,99812.66
2022-11-17T02:52:58.593Z,99813.29
2022-11-17T02:55:27.892Z,99814.92
2022-11-17T02:57:55.697Z,99812.14
2022-11-17T03:00:23.621Z,99815.97
2022-11-17T03:03:00.602Z,99814.13
2022-11-17T03:05:46.658Z,99811.91
2022-11-17T03:08:33.348Z,99815.23
2022-11-17T03:11:07.621Z,99813.80
2022-11-17T03:13:50.945Z,99814.27
2022-11-17T03:16:38.574Z,99813.20
2022-11-17T03:19:27.741Z,99807.48
2022-11-17T03:22:14.344Z,99810.88
2022-11-17T03:24:49.756Z,99815.08
2022-11-17T03:27:24.817Z,99810.02
2022-11-17T03:30:06.617Z,99808.52
2022-11-17T03:32:40.689Z,99803.02
2022-11-17T03:35:12.896Z,99803.71
2022-11-17T03:37:46.797Z,99802.70
2022-11-17T03:40:20.396Z,99804.01
2022-11-17T03:42:54.064Z,99805.31
2022-11-17T03:45:29.138Z,99809.51
2022-11-17T03:48:12.970Z,99807.98
2022-11-17T03:50:51.865Z,99809.97
2022-11-17T03:53:19.888Z,99808.42
2022-11-17T03:55:54.588Z,99808.45
2022-11-17T03:58:28.190Z,99814.34
2022-11-17T04:00:58.752Z,99810.83
2022-11-17T04:03:32.734Z,99809.99
2022-11-17T04:06:01.724Z,99811.36
2022-11-17T04:08:30.955Z,99811.02
2022-11-17T04:11:17.317Z,99812.56
2022-11-17T04:14:03.612Z,99808.89
2022-11-17T04:16:31.479Z,99810.02
2022-11-17T04:18:59.400Z,99809.85
2022-11-17T04:21:27.313Z,99811.55
2022-11-17T04:23:56.307Z,99812.52
2022-11-17T04:26:43.361Z,99813.52
2022-11-17T04:29:11.188Z,99815.15
2022-11-17T04:31:38.948Z,99815.48
2022-11-17T04:34:06.914Z,99817.64
2022-11-17T04:36:45.541Z,99815.44
2022-11-17T04:39:15.245Z,99821.95
2022-11-17T04:42:03.401Z,99819.61
2022-11-17T04:44:32.615Z,99817.25
2022-11-17T04:47:03.324Z,99816.90
2022-11-17T04:49:32.199Z,99817.23
2022-11-17T04:52:00.685Z,99815.89
2022-11-17T04:54:28.781Z,99817.85
2022-11-17T04:56:58.054Z,99817.77
2022-11-17T04:59:25.854Z,99815.51
2022-11-17T05:01:53.761Z,99817.33
2022-11-17T05:04:42.128Z,99818.16
2022-11-17T05:07:10.072Z,99816.48
2022-11-17T05:09:38.374Z,99817.34
2022-11-17T05:12:25.184Z,99819.55
2022-11-17T05:14:53.048Z,99823.23
2022-11-17T05:17:20.914Z,99825.25
2022-11-17T05:19:48.982Z,99827.43
2022-11-17T05:22:41.320Z,99823.05
2022-11-17T05:25:09.968Z,99820.48
2022-11-17T05:27:38.260Z,99819.61
2022-11-17T05:30:08.518Z,99816.41
2022-11-17T05:32:36.476Z,99814.70
2022-11-17T05:35:05.130Z,99814.83
2022-11-17T05:37:32.919Z,99813.99
2022-11-17T05:40:00.706Z,99817.41
2022-11-17T05:42:28.549Z,99817.57
2022-11-17T05:44:56.413Z,99816.30
2022-11-17T05:47:24.277Z,99813.09
2022-11-17T05:49:52.080Z,99813.92
2022-11-17T05:52:20.010Z,99811.39
2022-11-17T05:54:47.876Z,99816.09
2022-11-17T05:57:25.784Z,99819.81
2022-11-17T05:59:57.330Z,99818.79
2022-11-17T06:02:34.244Z,99815.46
2022-11-17T06:05:02.661Z,99813.45
2022-11-17T06:07:30.925Z,99815.84
2022-11-17T06:09:58.825Z,99815.16
2022-11-17T06:12:26.693Z,99817.27
2022-11-17T06:14:54.553Z,99823.83
2022-11-17T06:17:43.220Z,99828.21
2022-11-17T06:20:21.930Z,99829.43
2022-11-17T06:22:50.655Z,99833.14
2022-11-17T06:25:20.614Z,99832.78
2022-11-17T06:27:50.883Z,99834.30
2022-11-17T06:30:19.198Z,99835.49
2022-11-17T06:32:50.169Z,99836.03
2022-11-17T06:35:18.134Z,99835.05
2022-11-17T06:37:45.950Z,99838.25
2022-11-17T06:40:13.980Z,99839.29
2022-11-17T06:43:00.580Z,99836.43
2022-11-17T06:45:28.439Z,99837.32
2022-11-17T06:47:56.306Z,99842.86
2022-11-17T06:50:24.171Z,99836.78
2022-11-17T06:52:52.137Z,99834.77
2022-11-17T06:55:20.001Z,99833.21
2022-11-17T06:57:53.049Z,99835.82
2022-11-17T07:00:21.466Z,99833.48
2022-11-17T07:02:49.984Z,99833.04
2022-11-17T07:05:18.209Z,99833.92
2022-11-17T07:07:46.089Z,99837.59
2022-11-17T07:10:13.952Z,99837.40
2022-11-17T07:12:41.819Z,99840.58
2022-11-17T07:15:10.346Z,99844.48
2022-11-17T07:17:38.131Z,99846.70
2022-11-17T07:20:06.884Z,99847.20
2022-11-17T07:22:34.714Z,99850.46
2022-11-17T07:25:02.579Z,99847.77
2022-11-17T07:27:30.798Z,99846.11
2022-11-17T07:29:58.509Z,99847.13
2022-11-17T07:32:26.796Z,99845.60
2022-11-17T07:34:54.656Z,99843.58
2022-11-17T07:37:22.524Z,99842.23
2022-11-17T07:39:50.385Z,99842.77
2022-11-17T07:42:18.157Z,99847.63
2022-11-17T07:44:46.018Z,99847.84
2022-11-17T07:47:13.883Z,99851.91
2022-11-17T07:49:41.752Z,99852.42
2022-11-17T07:52:09.613Z,99855.92
2022-11-17T07:54:37.476Z,99856.89
2022-11-17T07:57:05.375Z,99859.62
2022-11-17T07:59:33.130Z,99860.61
2022-11-17T08:02:01.210Z,99860.76
2022-11-17T08:04:29.122Z,99867.23
2022-11-17T08:06:57.057Z,99871.81
2022-11-17T08:09:24.977Z,99868.54
2022-11-17T08:11:52.848Z,99869.69
2022-11-17T08:14:20.641Z,99866.27
2022-11-17T08:16:48.472Z,99868.17
2022-11-17T08:19:16.749Z,99870.17
2022-11-17T08:21:44.920Z,99868.15
2022-11-17T08:24:12.786Z,99868.46
2022-11-17T08:26:40.656Z,99867.42
2022-11-17T08:29:08.723Z,99862.52
2022-11-17T08:31:36.861Z,99861.10
2022-11-17T08:34:04.637Z,99860.21
2022-11-17T08:36:32.548Z,99863.73
2022-11-17T08:39:00.495Z,99867.80
2022-11-17T08:41:28.360Z,99864.15
2022-11-17T08:43:56.233Z,99862.98
2022-11-17T08:46:24.192Z,99861.54
2022-11-17T08:48:56.941Z,99864.51
2022-11-17T08:51:25.350Z,99864.67
2022-11-17T08:53:53.340Z,99865.05
2022-11-17T08:56:21.722Z,99866.30
2022-11-17T08:58:49.662Z,99865.24
2022-11-17T09:01:18.274Z,99863.84
2022-11-17T09:03:47.487Z,99865.55
2022-11-17T09:06:17.154Z,99862.73
2022-11-17T09:08:46.969Z,99868.65
2022-11-17T09:11:16.736Z,99868.48
2022-11-17T09:13:45.989Z,99867.11
2022-11-17T09:16:14.639Z,99862.11
2022-11-17T09:18:42.937Z,99860.86
2022-11-17T09:21:15.312Z,99859.27
2022-11-17T09:23:43.786Z,99861.16
2022-11-17T09:26:14.318Z,99862.04
2022-11-17T09:28:43.077Z,99859.67
2022-11-17T09:31:17.518Z,99860.84
2022-11-17T09:33:45.896Z,99858.30
2022-11-17T09:36:16.001Z,99860.44
2022-11-17T09:38:44.494Z,99855.67
2022-11-17T09:41:21.677Z,99850.20
2022-11-17T09:44:01.888Z,99852.20
2022-11-17T09:46:51.304Z,99851.93
2022-11-17T09:49:29.001Z,99849.36
2022-11-17T09:52:01.118Z,99851.13
2022-11-17T09:54:56.949Z,99850.83
2022-11-17T09:57:53.117Z,99848.00
2022-11-17T10:00:23.127Z,99843.38
2022-11-17T10:02:53.145Z,99842.69
2022-11-17T10:05:28.897Z,99843.70
2022-11-17T10:08:03.728Z,99835.38
2022-11-17T10:10:42.444Z,99834.05
2022-11-17T10:13:32.245Z,99829.52
2022-11-17T10:16:12.278Z,99826.85
2022-11-17T10:18:40.147Z,99830.91
2022-11-17T10:21:09.457Z,99827.21
2022-11-17T10:23:47.120Z,99828.58
2022-11-17T10:26:16.618Z,99830.61
2022-11-17T10:28:44.821Z,99822.91
2022-11-17T10:31:12.678Z,99824.14
2022-11-17T10:33:40.651Z,99825.15
2022-11-17T10:36:18.242Z,99824.83
2022-11-17T10:38:51.429Z,99828.06
2022-11-17T10:41:24.311Z,99828.27
2022-11-17T10:44:13.626Z,99827.11
2022-11-17T10:47:08.053Z,99823.98
2022-11-17T10:49:41.055Z,99820.43
2022-11-17T10:52:11.990Z,99816.65
2022-11-17T10:54:39.960Z,99814.48
2022-11-17T10:57:21.296Z,99816.32
2022-11-17T10:59:56.776Z,99816.34
2022-11-17T11:02:35.196Z,99820.68
2022-11-17T11:05:10.744Z,99818.65
2022-11-17T11:07:39.459Z,99818.11
2022-11-17T11:10:18.254Z,99819.05
2022-11-17T11:13:24.827Z,99821.89
2022-11-17T11:16:12.657Z,99821.64
2022-11-17T11:18:40.738Z,99821.55
2022-11-17T11:21:19.552Z,99820.07
2022-11-17T11:24:00.581Z,99821.69
2022-11-17T11:26:34.530Z,99824.55
2022-11-17T11:29:10.450Z,99824.89
2022-11-17T11:32:00.683Z,99818.63
2022-11-17T11:35:17.274Z,99819.60
2022-11-17T11:38:13.987Z,99816.95
2022-11-17T11:40:51.312Z,99814.94
2022-11-17T11:43:31.572Z,99818.23
2022-11-17T11:46:05.273Z,99818.23
2022-11-17T11:48:35.716Z,99817.20
2022-11-17T11:51:18.413Z,99811.96
2022-11-17T11:53:58.704Z,99810.96
2022-11-17T11:56:40.810Z,99811.20
2022-11-17T11:59:25.528Z,99817.12
2022-11-17T12:02:16.934Z,99812.91
2022-11-17T12:05:20.856Z,99813.88
2022-11-17T12:08:10.647Z,99816.95
2022-11-17T12:11:22.938Z,99819.38
2022-11-17T12:13:54.291Z,99816.70
2022-11-17T12:16:29.943Z,99814.02
2022-11-17T12:18:58.521Z,99806.88
2022-11-17T12:21:27.963Z,99804.60
2022-11-17T12:24:19.037Z,99803.61
2022-11-17T12:26:46.900Z,99801.84
2022-11-17T12:29:21.203Z,99801.71
2022-11-17T12:31:51.432Z,99798.08
2022-11-17T12:34:28.206Z,99798.96
2022-11-17T12:37:06.639Z,99797.34
2022-11-17T12:39:56.506Z,99799.84
2022-11-17T12:42:24.366Z,99799.83
2022-11-17T12:45:11.792Z,99799.14
2022-11-17T12:47:54.741Z,99790.57
2022-11-17T12:50:48.687Z,99792.59
2022-11-17T12:53:22.899Z,99795.80
2022-11-17T12:56:15.264Z,99791.27
2022-11-17T12:58:48.944Z,99785.63
2022-11-17T13:01:42.448Z,99780.95
2022-11-17T13:04:12.831Z,99779.91
2022-11-17T13:07:01.318Z,99775.55
2022-11-17T13:09:31.843Z,99769.20
2022-11-17T13:12:07.224Z,99768.20
2022-11-17T13:14:37.273Z,99769.88
2022-11-17T13:17:11.491Z,99772.42
2022-11-17T13:19:41.851Z,99771.14
2022-11-17T13:22:13.824Z,99772.86
2022-11-17T13:24:45.626Z,99768.54
2022-11-17T13:27:29.465Z,99768.73
2022-11-17T13:30:14.135Z,99769.30
2022-11-17T13:32:42.858Z,99774.24
2022-11-17T13:35:23.277Z,99774.70
2022-11-17T13:38:06.473Z,99772.77
2022-11-17T13:40:35.902Z,99776.23
2022-11-17T13:43:05.021Z,99771.83
2022-11-17T13:45:33.411Z,99769.78
2022-11-17T13:48:01.541Z,99766.73
2022-11-17T13:50:32.276Z,99765.33
2022-11-17T13:53:06.698Z,99766.80
2022-11-17T13:55:34.765Z,99766.92
2022-11-17T13:58:04.680Z,99766.92
2022-11-17T14:00:33.816Z,99766.08
2022-11-17T14:03:23.141Z,99765.51
2022-11-17T14:05:57.361Z,99756.58
2022-11-17T14:08:29.531Z,99759.00
2022-11-17T14:11:21.610Z,99761.60
2022-11-17T14:14:01.356Z,99760.97
2022-11-17T14:16:36.741Z,99757.30
2022-11-17T14:19:24.374Z,99755.27
2022-11-17T14:22:08.523Z,99754.10
2022-11-17T14:24:36.893Z,99759.60
2022-11-17T14:27:29.957Z,99757.83
2022-11-17T14:29:57.817Z,99762.52
2022-11-17T14:32:25.683Z,99757.39
2022-11-17T14:34:53.551Z,99756.08
2022-11-17T14:37:21.618Z,99757.46
2022-11-17T14:39:49.486Z,99760.14
2022-11-17T14:42:17.249Z,99761.83
2022-11-17T14:44:45.113Z,99762.70
2022-11-17T14:47:12.976Z,99763.91
2022-11-17T14:49:40.753Z,99766.47
2022-11-17T14:52:08.545Z,99762.79
2022-11-17T14:54:36.314Z,99761.82
2022-11-17T14:57:04.240Z,99765.40
2022-11-17T14:59:32.102Z,99763.94
2022-11-17T15:02:02.937Z,99769.34
2022-11-17T15:07:18.660Z,99766.41
2022-11-17T15:09:47.016Z,99762.36
2022-11-17T15:12:14.806Z,99763.03
2022-11-17T15:14:42.743Z,99759.45
2022-11-17T15:17:14.503Z,99765.85
2022-11-17T15:19:42.695Z,99765.87
2022-11-17T15:22:10.446Z,99764.88
2022-11-17T15:24:38.191Z,99767.27
2022-11-17T15:27:05.960Z,99771.05
2022-11-17T15:29:34.135Z,99761.67
2022-11-17T15:32:02.206Z,99762.10
2022-11-17T15:34:30.102Z,99758.95
2022-11-17T15:36:57.938Z,99756.00
2022-11-17T15:39:25.802Z,99759.05
2022-11-17T15:41:53.873Z,99760.00
2022-11-17T15:44:21.702Z,99761.70
2022-11-17T15:46:49.710Z,99758.48
2022-11-17T15:49:17.896Z,99755.92
2022-11-17T15:51:46.160Z,99749.98
2022-11-17T15:54:19.905Z,99750.79
2022-11-17T15:56:48.912Z,99752.84
2022-11-17T15:59:16.955Z,99756.12
2022-11-17T16:01:45.698Z,99755.22
2022-11-17T16:04:16.074Z,99754.30
2022-11-17T16:06:45.963Z,99754.27
2022-11-17T16:09:15.364Z,99755.58
2022-11-17T16:11:43.997Z,99752.48
2022-11-17T16:14:11.997Z,99750.74
2022-11-17T16:16:39.962Z,99745.23
2022-11-17T16:19:08.037Z,99747.31
2022-11-17T16:21:35.902Z,99751.04
2022-11-17T16:24:03.983Z,99744.84
2022-11-17T16:26:32.022Z,99743.35
2022-11-17T16:29:02.315Z,99746.48
2022-11-17T16:31:32.806Z,99743.31
2022-11-17T16:34:03.835Z,99740.34
2022-11-17T16:36:36.738Z,99738.85
2022-11-17T16:39:08.065Z,99741.33
2022-11-17T16:41:38.590Z,99741.55
2022-11-17T16:44:12.256Z,99743.38
2022-11-17T16:46:45.275Z,99745.13
2022-11-17T16:49:15.344Z,99747.70
2022-11-17T16:51:51.399Z,99744.83
2022-11-17T16:54:20.552Z,99746.86
2022-11-17T16:56:48.720Z,99746.32
2022-11-17T16:59:17.068Z,99744.92
2022-11-17T17:01:45.586Z,99738.44
2022-11-17T17:04:13.545Z,99738.36
2022-11-17T17:06:43.762Z,99739.33
2022-11-17T17:09:13.719Z,99743.16
2022-11-17T17:11:41.954Z,99741.83
2022-11-17T17:14:12.999Z,99741.13
2022-11-17T17:16:42.081Z,99733.50
2022-11-17T17:19:11.803Z,99733.27
2022-11-17T17:21:41.411Z,99730.73
2022-11-17T17:24:10.393Z,99729.77
2022-11-17T17:26:40.220Z,99722.40
2022-11-17T17:29:08.890Z,99720.52
2022-11-17T17:31:39.358Z,99719.06
2022-11-17T17:34:08.513Z,99721.35
2022-11-17T17:36:38.610Z,99714.64
2022-11-17T17:39:07.127Z,99711.46
2022-11-17T17:41:39.485Z,99707.07
2022-11-17T17:44:08.476Z,99707.23
2022-11-17T17:46:38.885Z,99703.77
2022-11-17T17:49:06.920Z,99701.28
2022-11-17T17:51:40.370Z,99704.51
2022-11-17T17:54:16.734Z,99704.64
2022-11-17T17:56:44.903Z,99705.00
2022-11-17T17:59:16.945Z,99703.20
2022-11-17T18:01:47.526Z,99705.87
2022-11-17T18:04:16.851Z,99704.84
2022-11-17T18:06:47.875Z,99701.00
2022-11-17T18:09:19.492Z,99700.84
2022-11-17T18:11:50.565Z,99699.98
2022-11-17T18:14:24.143Z,99696.60
2022-11-17T18:16:53.581Z,99688.60
2022-11-17T18:19:22.263Z,99686.17
2022-11-17T18:21:50.182Z,99683.08
2022-11-17T18:24:18.011Z,99682.89
2022-11-17T18:26:45.912Z,99683.33
2022-11-17T18:29:16.524Z,99687.11
2022-11-17T18:31:47.404Z,99684.89
2022-11-17T18:34:28.352Z,99685.14
2022-11-17T18:36:56.537Z,99679.88
2022-11-17T18:39:25.361Z,99676.45
2022-11-17T18:41:53.188Z,99677.86
2022-11-17T18:44:21.057Z,99677.27
2022-11-17T18:46:49.026Z,99674.56
2022-11-17T18:49:17.274Z,99681.55
2022-11-17T18:51:46.072Z,99681.70
2022-11-17T18:54:14.348Z,99694.77
2022-11-17T18:56:42.523Z,99691.92
2022-11-17T18:59:13.273Z,99688.88
2022-11-17T19:01:43.167Z,99686.13
2022-11-17T19:04:15.031Z,99683.48
2022-11-17T19:06:42.865Z,99682.79
2022-11-17T19:09:11.280Z,99687.55
2022-11-17T19:11:39.452Z,99687.52
2022-11-17T19:14:07.315Z,99678.04
2022-11-17T19:16:44.451Z,99677.42
2022-11-17T19:19:14.255Z,99670.94
2022-11-17T19:21:43.451Z,99665.96
2022-11-17T19:24:12.159Z,99666.16
2022-11-17T19:26:40.255Z,99662.41
2022-11-17T19:29:16.218Z,99662.13
2022-11-17T19:31:46.951Z,99661.15
2022-11-17T19:34:15.998Z,99658.13
2022-11-17T19:36:45.037Z,99662.30
2022-11-17T19:39:13.972Z,99663.14
2022-11-17T19:41:43.846Z,99661.52
2022-11-17T19:44:11.804Z,99663.84
2022-11-17T19:46:39.770Z,99665.46
2022-11-17T19:49:08.881Z,99658.27
2022-11-17T19:51:37.316Z,99653.98
2022-11-17T19:54:08.111Z,99650.61
2022-11-17T19:56:36.937Z,99650.44
2022-11-17T19:59:06.206Z,99653.09
2022-11-17T20:01:34.708Z,99647.47
2022-11-17T20:04:02.739Z,99645.14
2022-11-17T20:06:37.045Z,99649.86
2022-11-17T20:09:10.580Z,99651.98
2022-11-17T20:11:39.127Z,99655.58
2022-11-17T20:14:07.808Z,99655.02
2022-11-17T20:16:38.537Z,99654.63
2022-11-17T20:19:06.605Z,99653.56
2022-11-17T20:21:35.093Z,99650.04
2022-11-17T20:24:03.519Z,99648.69
2022-11-17T20:26:33.613Z,99650.15
2022-11-17T20:29:01.861Z,99648.75
2022-11-17T20:31:32.609Z,99648.02
2022-11-17T20:34:02.198Z,99645.64
2022-11-17T20:36:31.472Z,99643.91
2022-11-17T20:39:04.834Z,99640.55
2022-11-17T20:41:32.757Z,99642.70
2022-11-17T20:44:02.668Z,99641.11
2022-11-17T20:46:31.000Z,99635.72
2022-11-17T20:48:59.011Z,99635.31
2022-11-17T20:51:27.192Z,99632.27
2022-11-17T20:53:55.008Z,99629.73
2022-11-17T20:56:22.922Z,99626.16
2022-11-17T20:58:50.784Z,99618.96
2022-11-17T21:01:21.233Z,99616.63
2022-11-17T21:03:49.485Z,99616.54
2022-11-17T21:06:18.272Z,99618.95
2022-11-17T21:08:46.796Z,99616.50
2022-11-17T21:11:36.027Z,99611.45
2022-11-17T21:14:05.699Z,99614.54
2022-11-17T21:16:34.771Z,99613.23
2022-11-17T21:19:02.795Z,99610.79
2022-11-17T21:21:30.656Z,99609.95
2022-11-17T21:23:58.631Z,99609.00
2022-11-17T21:26:28.044Z,99604.02
2022-11-17T21:28:59.348Z,99602.39
2022-11-17T21:31:31.639Z,99597.59
2022-11-17T21:34:02.374Z,99602.05
2022-11-17T21:36:31.313Z,99603.27
2022-11-17T21:38:59.783Z,99594.88
2022-11-17T21:41:34.879Z,99592.70
2022-11-17T21:44:03.677Z,99590.35
2022-11-17T21:46:33.893Z,99589.51
2022-11-17T21:49:01.968Z,99590.54
2022-11-17T21:51:38.257Z,99585.29
2022-11-17T21:54:08.648Z,99588.14
2022-11-17T21:56:36.818Z,99583.98
2022-11-17T21:59:09.839Z,99580.00
2022-11-17T22:01:38.245Z,99576.35
2022-11-17T22:04:06.054Z,99574.34
2022-11-17T22:06:33.915Z,99578.42
2022-11-17T22:09:01.785Z,99577.30
2022-11-17T22:11:37.519Z,99575.39
2022-11-17T22:14:10.210Z,99569.98
2022-11-17T22:16:43.912Z,99568.16
2022-11-17T22:19:13.640Z,99568.52
2022-11-17T22:21:43.118Z,99570.39
2022-11-17T22:24:12.525Z,99571.46
2022-11-17T22:26:42.538Z,99565.31
2022-11-17T22:29:12.873Z,99567.09
2022-11-17T22:31:40.653Z,99563.84
2022-11-17T22:34:08.602Z,99564.06
2022-11-17T22:36:36.768Z,99564.08
2022-11-17T22:39:05.659Z,99569.13
2022-11-17T22:41:33.832Z,99570.30
2022-11-17T22:44:01.797Z,99566.79
2022-11-17T22:46:29.663Z,99561.58
2022-11-17T22:48:57.940Z,99558.84
2022-11-17T22:51:44.441Z,99554.73
2022-11-17T22:54:13.024Z,99552.66
2022-11-17T22:56:40.993Z,99551.79
2022-11-17T22:59:09.416Z,99551.19
2022-11-17T23:01:37.748Z,99550.13
2022-11-17T23:04:06.681Z,99547.16
2022-11-17T23:06:34.811Z,99545.23
2022-11-17T23:09:02.648Z,99545.09
2022-11-17T23:11:37.142Z,99543.59
2022-11-17T23:14:09.818Z,99537.09
2022-11-17T23:16:38.820Z,99539.64
2022-11-17T23:19:09.517Z,99541.48
2022-11-17T23:21:37.425Z,99543.54
2022-11-17T23:24:06.078Z,99546.92
2022-11-17T23:26:33.854Z,99543.58
2022-11-17T23:29:01.632Z,99545.88
2022-11-17T23:31:29.412Z,99547.27
2022-11-17T23:33:57.208Z,99544.78
2022-11-17T23:36:25.213Z,99542.04
2022-11-17T23:38:55.270Z,99539.19
2022-11-17T23:41:23.362Z,99539.84
2022-11-17T23:43:53.101Z,99537.88
2022-11-17T23:46:24.928Z,99541.52
2022-11-17T23:48:52.900Z,99547.02
2022-11-17T23:51:25.915Z,99555.11
2022-11-17T23:53:54.156Z,99558.55
2022-11-17T23:56:22.745Z,99559.98
2022-11-17T23:58:51.599Z,99562.22
